sensor_id;sensor_type;location;lat;lon;timestamp;P1;durP1;ratioP1;P2;durP2;ratioP2
30036;SDS011;36325;51.512;-0.382;2023-03-12T00:00:06;41.38;;;20.20;;
30036;SDS011;36325;51.512;-0.382;2023-03-12T00:02:36;44.63;;;20.25;;
30036;SDS011;36325;51.512;-0.382;2023-03-12T00:05:03;42.83;;;21.00;;
30036;SDS011;36325;51.512;-0.382;2023-03-12T00:07:31;36.85;;;18.10;;
30036;SDS011;36325;51.512;-0.382;2023-03-12T00:10:02;41.25;;;18.92;;
30036;SDS011;36325;51.512;-0.382;2023-03-12T00:12:31;34.25;;;17.48;;
30036;SDS011;36325;51.512;-0.382;2023-03-12T00:14:59;37.10;;;16.77;;
30036;SDS011;36325;51.512;-0.382;2023-03-12T00:17:27;39.05;;;17.75;;
30036;SDS011;36325;51.512;-0.382;2023-03-12T00:19:55;35.95;;;17.55;;
30036;SDS011;36325;51.512;-0.382;2023-03-12T00:22:22;32.10;;;16.45;;
30036;SDS011;36325;51.512;-0.382;2023-03-12T00:24:52;34.55;;;14.95;;
30036;SDS011;36325;51.512;-0.382;2023-03-12T00:27:20;33.72;;;15.20;;
30036;SDS011;36325;51.512;-0.382;2023-03-12T00:29:48;33.80;;;15.75;;
30036;SDS011;36325;51.512;-0.382;2023-03-12T00:32:16;34.83;;;15.50;;
30036;SDS011;36325;51.512;-0.382;2023-03-12T00:34:49;32.65;;;14.27;;
30036;SDS011;36325;51.512;-0.382;2023-03-12T00:37:20;30.75;;;15.90;;
30036;SDS011;36325;51.512;-0.382;2023-03-12T00:39:47;28.17;;;13.43;;
30036;SDS011;36325;51.512;-0.382;2023-03-12T00:42:16;30.88;;;13.55;;
30036;SDS011;36325;51.512;-0.382;2023-03-12T00:44:44;25.95;;;12.73;;
30036;SDS011;36325;51.512;-0.382;2023-03-12T00:47:12;26.42;;;12.63;;
30036;SDS011;36325;51.512;-0.382;2023-03-12T00:49:39;29.27;;;11.98;;
30036;SDS011;36325;51.512;-0.382;2023-03-12T00:52:07;29.40;;;12.50;;
30036;SDS011;36325;51.512;-0.382;2023-03-12T00:54:35;33.95;;;13.75;;
30036;SDS011;36325;51.512;-0.382;2023-03-12T00:57:02;34.60;;;12.57;;
30036;SDS011;36325;51.512;-0.382;2023-03-12T00:59:31;32.65;;;12.55;;
30036;SDS011;36325;51.512;-0.382;2023-03-12T01:01:58;31.50;;;11.38;;
30036;SDS011;36325;51.512;-0.382;2023-03-12T01:04:27;30.23;;;12.30;;
30036;SDS011;36325;51.512;-0.382;2023-03-12T01:06:54;33.08;;;11.70;;
30036;SDS011;36325;51.512;-0.382;2023-03-12T01:09:21;28.23;;;11.90;;
30036;SDS011;36325;51.512;-0.382;2023-03-12T01:11:50;34.50;;;11.75;;
30036;SDS011;36325;51.512;-0.382;2023-03-12T01:14:17;33.03;;;11.25;;
30036;SDS011;36325;51.512;-0.382;2023-03-12T01:16:46;34.15;;;11.48;;
30036;SDS011;36325;51.512;-0.382;2023-03-12T01:19:15;30.52;;;11.25;;
30036;SDS011;36325;51.512;-0.382;2023-03-12T01:21:43;30.08;;;12.43;;
30036;SDS011;36325;51.512;-0.382;2023-03-12T01:24:11;29.23;;;11.77;;
30036;SDS011;36325;51.512;-0.382;2023-03-12T01:26:38;31.52;;;11.57;;
30036;SDS011;36325;51.512;-0.382;2023-03-12T01:29:05;31.73;;;11.30;;
30036;SDS011;36325;51.512;-0.382;2023-03-12T01:31:33;27.50;;;10.30;;
30036;SDS011;36325;51.512;-0.382;2023-03-12T01:34:00;31.25;;;11.52;;
30036;SDS011;36325;51.512;-0.382;2023-03-12T01:36:28;38.40;;;11.13;;
30036;SDS011;36325;51.512;-0.382;2023-03-12T01:38:57;30.40;;;10.32;;
30036;SDS011;36325;51.512;-0.382;2023-03-12T01:41:26;27.13;;;9.13;;
30036;SDS011;36325;51.512;-0.382;2023-03-12T01:43:55;27.20;;;9.55;;
30036;SDS011;36325;51.512;-0.382;2023-03-12T01:52:06;25.45;;;8.73;;
30036;SDS011;36325;51.512;-0.382;2023-03-12T01:55:00;23.55;;;9.38;;
30036;SDS011;36325;51.512;-0.382;2023-03-12T01:57:36;22.42;;;9.50;;
30036;SDS011;36325;51.512;-0.382;2023-03-12T02:00:16;33.22;;;9.23;;
30036;SDS011;36325;51.512;-0.382;2023-03-12T02:02:47;26.63;;;7.75;;
30036;SDS011;36325;51.512;-0.382;2023-03-12T02:05:30;33.08;;;9.00;;
30036;SDS011;36325;51.512;-0.382;2023-03-12T02:08:01;25.58;;;8.23;;
30036;SDS011;36325;51.512;-0.382;2023-03-12T02:10:30;34.05;;;9.43;;
30036;SDS011;36325;51.512;-0.382;2023-03-12T02:12:57;33.42;;;8.85;;
30036;SDS011;36325;51.512;-0.382;2023-03-12T02:15:24;30.65;;;9.48;;
30036;SDS011;36325;51.512;-0.382;2023-03-12T02:17:53;25.63;;;9.07;;
30036;SDS011;36325;51.512;-0.382;2023-03-12T02:20:26;26.40;;;8.20;;
30036;SDS011;36325;51.512;-0.382;2023-03-12T02:26:08;31.33;;;8.90;;
30036;SDS011;36325;51.512;-0.382;2023-03-12T02:28:37;28.13;;;8.02;;
30036;SDS011;36325;51.512;-0.382;2023-03-12T02:31:14;28.77;;;8.05;;
30036;SDS011;36325;51.512;-0.382;2023-03-12T02:33:48;36.63;;;8.10;;
30036;SDS011;36325;51.512;-0.382;2023-03-12T02:36:16;41.75;;;8.15;;
30036;SDS011;36325;51.512;-0.382;2023-03-12T02:41:13;31.63;;;7.55;;
30036;SDS011;36325;51.512;-0.382;2023-03-12T02:43:42;40.70;;;8.10;;
30036;SDS011;36325;51.512;-0.382;2023-03-12T02:46:13;41.15;;;8.98;;
30036;SDS011;36325;51.512;-0.382;2023-03-12T02:48:41;27.05;;;6.85;;
30036;SDS011;36325;51.512;-0.382;2023-03-12T02:51:08;42.75;;;8.10;;
30036;SDS011;36325;51.512;-0.382;2023-03-12T02:53:36;32.22;;;7.60;;
30036;SDS011;36325;51.512;-0.382;2023-03-12T02:56:03;42.03;;;8.05;;
30036;SDS011;36325;51.512;-0.382;2023-03-12T02:58:31;41.13;;;7.80;;
30036;SDS011;36325;51.512;-0.382;2023-03-12T03:01:00;49.75;;;8.52;;
30036;SDS011;36325;51.512;-0.382;2023-03-12T03:03:27;29.70;;;6.85;;
30036;SDS011;36325;51.512;-0.382;2023-03-12T03:05:54;38.67;;;8.18;;
30036;SDS011;36325;51.512;-0.382;2023-03-12T03:08:22;38.10;;;8.80;;
30036;SDS011;36325;51.512;-0.382;2023-03-12T03:10:50;45.10;;;8.23;;
30036;SDS011;36325;51.512;-0.382;2023-03-12T03:13:18;36.40;;;7.45;;
30036;SDS011;36325;51.512;-0.382;2023-03-12T03:15:45;44.03;;;8.18;;
30036;SDS011;36325;51.512;-0.382;2023-03-12T03:18:13;35.35;;;7.35;;
30036;SDS011;36325;51.512;-0.382;2023-03-12T03:20:40;36.75;;;7.30;;
30036;SDS011;36325;51.512;-0.382;2023-03-12T03:23:10;42.67;;;8.63;;
30036;SDS011;36325;51.512;-0.382;2023-03-12T03:25:40;53.92;;;8.25;;
30036;SDS011;36325;51.512;-0.382;2023-03-12T03:28:07;56.10;;;8.98;;
30036;SDS011;36325;51.512;-0.382;2023-03-12T03:30:37;54.58;;;8.23;;
30036;SDS011;36325;51.512;-0.382;2023-03-12T03:33:06;48.67;;;8.45;;
30036;SDS011;36325;51.512;-0.382;2023-03-12T03:35:33;57.65;;;8.57;;
30036;SDS011;36325;51.512;-0.382;2023-03-12T03:38:01;50.67;;;8.18;;
30036;SDS011;36325;51.512;-0.382;2023-03-12T03:40:28;37.60;;;7.05;;
30036;SDS011;36325;51.512;-0.382;2023-03-12T03:42:56;64.30;;;8.57;;
30036;SDS011;36325;51.512;-0.382;2023-03-12T03:45:24;54.95;;;8.18;;
30036;SDS011;36325;51.512;-0.382;2023-03-12T03:47:52;45.05;;;7.35;;
30036;SDS011;36325;51.512;-0.382;2023-03-12T03:50:20;60.45;;;6.93;;
30036;SDS011;36325;51.512;-0.382;2023-03-12T03:52:48;43.47;;;6.75;;
30036;SDS011;36325;51.512;-0.382;2023-03-12T03:55:15;42.55;;;6.32;;
30036;SDS011;36325;51.512;-0.382;2023-03-12T03:57:42;60.05;;;9.30;;
30036;SDS011;36325;51.512;-0.382;2023-03-12T04:00:10;57.08;;;7.90;;
30036;SDS011;36325;51.512;-0.382;2023-03-12T04:02:43;67.13;;;8.40;;
30036;SDS011;36325;51.512;-0.382;2023-03-12T04:05:12;45.63;;;7.13;;
30036;SDS011;36325;51.512;-0.382;2023-03-12T04:07:41;38.03;;;6.93;;
30036;SDS011;36325;51.512;-0.382;2023-03-12T04:10:09;59.60;;;8.75;;
30036;SDS011;36325;51.512;-0.382;2023-03-12T04:12:37;50.47;;;8.30;;
30036;SDS011;36325;51.512;-0.382;2023-03-12T04:15:05;31.95;;;6.18;;
30036;SDS011;36325;51.512;-0.382;2023-03-12T04:17:33;44.50;;;8.15;;
30036;SDS011;36325;51.512;-0.382;2023-03-12T04:20:01;52.42;;;6.93;;
30036;SDS011;36325;51.512;-0.382;2023-03-12T04:22:32;48.88;;;6.90;;
30036;SDS011;36325;51.512;-0.382;2023-03-12T04:25:00;48.58;;;8.70;;
30036;SDS011;36325;51.512;-0.382;2023-03-12T04:27:28;49.60;;;9.52;;
30036;SDS011;36325;51.512;-0.382;2023-03-12T04:29:55;51.30;;;6.97;;
30036;SDS011;36325;51.512;-0.382;2023-03-12T04:32:23;60.00;;;8.13;;
30036;SDS011;36325;51.512;-0.382;2023-03-12T04:34:51;50.95;;;8.07;;
30036;SDS011;36325;51.512;-0.382;2023-03-12T04:37:19;55.33;;;7.15;;
30036;SDS011;36325;51.512;-0.382;2023-03-12T04:39:46;44.88;;;8.95;;
30036;SDS011;36325;51.512;-0.382;2023-03-12T04:42:14;66.53;;;10.40;;
30036;SDS011;36325;51.512;-0.382;2023-03-12T04:44:43;70.60;;;8.65;;
30036;SDS011;36325;51.512;-0.382;2023-03-12T04:47:11;66.40;;;9.23;;
30036;SDS011;36325;51.512;-0.382;2023-03-12T04:49:38;57.38;;;7.55;;
30036;SDS011;36325;51.512;-0.382;2023-03-12T04:52:06;70.25;;;11.10;;
30036;SDS011;36325;51.512;-0.382;2023-03-12T04:54:34;78.22;;;9.38;;
30036;SDS011;36325;51.512;-0.382;2023-03-12T04:57:03;66.18;;;7.15;;
30036;SDS011;36325;51.512;-0.382;2023-03-12T04:59:30;55.05;;;8.23;;
30036;SDS011;36325;51.512;-0.382;2023-03-12T05:01:58;61.95;;;9.15;;
30036;SDS011;36325;51.512;-0.382;2023-03-12T05:04:27;82.97;;;12.80;;
30036;SDS011;36325;51.512;-0.382;2023-03-12T05:06:58;65.07;;;9.48;;
30036;SDS011;36325;51.512;-0.382;2023-03-12T05:09:25;79.82;;;10.13;;
30036;SDS011;36325;51.512;-0.382;2023-03-12T05:11:53;74.43;;;9.02;;
30036;SDS011;36325;51.512;-0.382;2023-03-12T05:14:21;70.13;;;9.48;;
30036;SDS011;36325;51.512;-0.382;2023-03-12T05:16:49;71.35;;;9.30;;
30036;SDS011;36325;51.512;-0.382;2023-03-12T05:19:16;57.55;;;8.80;;
30036;SDS011;36325;51.512;-0.382;2023-03-12T05:21:44;73.22;;;9.48;;
30036;SDS011;36325;51.512;-0.382;2023-03-12T05:24:12;64.22;;;9.23;;
30036;SDS011;36325;51.512;-0.382;2023-03-12T05:26:39;50.17;;;8.52;;
30036;SDS011;36325;51.512;-0.382;2023-03-12T05:29:14;66.93;;;9.02;;
30036;SDS011;36325;51.512;-0.382;2023-03-12T05:31:42;65.43;;;9.32;;
30036;SDS011;36325;51.512;-0.382;2023-03-12T05:34:20;68.28;;;9.25;;
30036;SDS011;36325;51.512;-0.382;2023-03-12T05:36:47;64.40;;;10.35;;
30036;SDS011;36325;51.512;-0.382;2023-03-12T05:41:46;45.92;;;7.25;;
30036;SDS011;36325;51.512;-0.382;2023-03-12T05:44:16;54.40;;;9.27;;
30036;SDS011;36325;51.512;-0.382;2023-03-12T05:46:49;78.70;;;8.90;;
30036;SDS011;36325;51.512;-0.382;2023-03-12T05:49:23;65.75;;;10.13;;
30036;SDS011;36325;51.512;-0.382;2023-03-12T05:51:52;58.92;;;8.70;;
30036;SDS011;36325;51.512;-0.382;2023-03-12T05:54:22;55.97;;;9.55;;
30036;SDS011;36325;51.512;-0.382;2023-03-12T05:56:51;52.33;;;10.80;;
30036;SDS011;36325;51.512;-0.382;2023-03-12T05:59:20;52.50;;;8.57;;
30036;SDS011;36325;51.512;-0.382;2023-03-12T06:01:49;61.83;;;10.52;;
30036;SDS011;36325;51.512;-0.382;2023-03-12T06:04:16;87.82;;;12.65;;
30036;SDS011;36325;51.512;-0.382;2023-03-12T06:06:52;107.88;;;21.85;;
30036;SDS011;36325;51.512;-0.382;2023-03-12T06:09:20;87.28;;;14.38;;
30036;SDS011;36325;51.512;-0.382;2023-03-12T06:11:48;65.72;;;10.85;;
30036;SDS011;36325;51.512;-0.382;2023-03-12T06:14:16;58.40;;;8.57;;
30036;SDS011;36325;51.512;-0.382;2023-03-12T06:16:44;84.18;;;11.35;;
30036;SDS011;36325;51.512;-0.382;2023-03-12T06:19:12;53.53;;;9.30;;
30036;SDS011;36325;51.512;-0.382;2023-03-12T06:21:44;58.60;;;9.00;;
30036;SDS011;36325;51.512;-0.382;2023-03-12T06:24:12;52.53;;;9.85;;
30036;SDS011;36325;51.512;-0.382;2023-03-12T06:26:47;59.00;;;10.27;;
30036;SDS011;36325;51.512;-0.382;2023-03-12T06:29:14;70.35;;;9.70;;
30036;SDS011;36325;51.512;-0.382;2023-03-12T06:31:41;83.38;;;9.88;;
30036;SDS011;36325;51.512;-0.382;2023-03-12T06:34:09;71.55;;;10.60;;
30036;SDS011;36325;51.512;-0.382;2023-03-12T06:36:36;61.83;;;9.55;;
30036;SDS011;36325;51.512;-0.382;2023-03-12T06:39:04;60.13;;;8.25;;
30036;SDS011;36325;51.512;-0.382;2023-03-12T06:41:31;50.92;;;8.68;;
30036;SDS011;36325;51.512;-0.382;2023-03-12T06:43:59;72.90;;;9.75;;
30036;SDS011;36325;51.512;-0.382;2023-03-12T06:46:29;62.78;;;8.02;;
30036;SDS011;36325;51.512;-0.382;2023-03-12T06:48:57;62.47;;;8.05;;
30036;SDS011;36325;51.512;-0.382;2023-03-12T06:51:24;64.13;;;10.18;;
30036;SDS011;36325;51.512;-0.382;2023-03-12T06:53:51;62.40;;;8.32;;
30036;SDS011;36325;51.512;-0.382;2023-03-12T06:56:18;55.13;;;10.90;;
30036;SDS011;36325;51.512;-0.382;2023-03-12T06:58:45;62.42;;;7.75;;
30036;SDS011;36325;51.512;-0.382;2023-03-12T07:01:13;68.72;;;10.70;;
30036;SDS011;36325;51.512;-0.382;2023-03-12T07:03:40;68.40;;;9.20;;
30036;SDS011;36325;51.512;-0.382;2023-03-12T07:06:11;53.20;;;8.40;;
30036;SDS011;36325;51.512;-0.382;2023-03-12T07:08:43;63.15;;;8.43;;
30036;SDS011;36325;51.512;-0.382;2023-03-12T07:11:11;58.35;;;7.75;;
30036;SDS011;36325;51.512;-0.382;2023-03-12T07:13:39;45.92;;;8.18;;
30036;SDS011;36325;51.512;-0.382;2023-03-12T07:16:07;66.57;;;8.00;;
30036;SDS011;36325;51.512;-0.382;2023-03-12T07:18:35;54.13;;;9.43;;
30036;SDS011;36325;51.512;-0.382;2023-03-12T07:21:03;62.42;;;8.82;;
30036;SDS011;36325;51.512;-0.382;2023-03-12T07:23:31;62.95;;;8.00;;
30036;SDS011;36325;51.512;-0.382;2023-03-12T07:25:58;61.08;;;8.88;;
30036;SDS011;36325;51.512;-0.382;2023-03-12T07:28:25;57.00;;;8.02;;
30036;SDS011;36325;51.512;-0.382;2023-03-12T07:30:58;54.72;;;8.15;;
30036;SDS011;36325;51.512;-0.382;2023-03-12T07:33:27;47.05;;;8.55;;
30036;SDS011;36325;51.512;-0.382;2023-03-12T07:35:54;49.65;;;7.00;;
30036;SDS011;36325;51.512;-0.382;2023-03-12T07:38:22;54.22;;;8.82;;
30036;SDS011;36325;51.512;-0.382;2023-03-12T07:40:53;49.85;;;7.57;;
30036;SDS011;36325;51.512;-0.382;2023-03-12T07:43:22;44.83;;;6.97;;
30036;SDS011;36325;51.512;-0.382;2023-03-12T07:45:52;44.50;;;6.75;;
30036;SDS011;36325;51.512;-0.382;2023-03-12T07:48:19;56.85;;;7.57;;
30036;SDS011;36325;51.512;-0.382;2023-03-12T07:50:47;53.80;;;7.22;;
30036;SDS011;36325;51.512;-0.382;2023-03-12T07:53:14;41.20;;;6.20;;
30036;SDS011;36325;51.512;-0.382;2023-03-12T07:55:43;49.05;;;8.65;;
30036;SDS011;36325;51.512;-0.382;2023-03-12T07:58:12;37.78;;;7.78;;
30036;SDS011;36325;51.512;-0.382;2023-03-12T08:00:41;45.47;;;7.38;;
30036;SDS011;36325;51.512;-0.382;2023-03-12T08:03:08;45.88;;;7.78;;
30036;SDS011;36325;51.512;-0.382;2023-03-12T08:05:36;46.42;;;8.30;;
30036;SDS011;36325;51.512;-0.382;2023-03-12T08:08:04;49.42;;;7.63;;
30036;SDS011;36325;51.512;-0.382;2023-03-12T08:10:32;41.83;;;7.05;;
30036;SDS011;36325;51.512;-0.382;2023-03-12T08:13:00;42.65;;;6.47;;
30036;SDS011;36325;51.512;-0.382;2023-03-12T08:15:27;48.67;;;7.47;;
30036;SDS011;36325;51.512;-0.382;2023-03-12T08:17:54;56.80;;;6.97;;
30036;SDS011;36325;51.512;-0.382;2023-03-12T08:20:21;48.38;;;7.80;;
30036;SDS011;36325;51.512;-0.382;2023-03-12T08:22:48;50.30;;;7.70;;
30036;SDS011;36325;51.512;-0.382;2023-03-12T08:25:16;45.08;;;8.63;;
30036;SDS011;36325;51.512;-0.382;2023-03-12T08:27:44;60.78;;;7.90;;
30036;SDS011;36325;51.512;-0.382;2023-03-12T08:30:11;53.35;;;8.30;;
30036;SDS011;36325;51.512;-0.382;2023-03-12T08:32:38;51.70;;;7.68;;
30036;SDS011;36325;51.512;-0.382;2023-03-12T08:35:06;57.05;;;7.78;;
30036;SDS011;36325;51.512;-0.382;2023-03-12T08:37:35;58.15;;;7.50;;
30036;SDS011;36325;51.512;-0.382;2023-03-12T08:40:02;36.75;;;7.97;;
30036;SDS011;36325;51.512;-0.382;2023-03-12T08:42:39;49.00;;;7.95;;
30036;SDS011;36325;51.512;-0.382;2023-03-12T08:45:09;47.72;;;6.95;;
30036;SDS011;36325;51.512;-0.382;2023-03-12T08:47:39;47.30;;;7.15;;
30036;SDS011;36325;51.512;-0.382;2023-03-12T08:50:08;46.22;;;7.03;;
30036;SDS011;36325;51.512;-0.382;2023-03-12T08:52:38;56.90;;;10.27;;
30036;SDS011;36325;51.512;-0.382;2023-03-12T08:55:05;35.70;;;7.13;;
30036;SDS011;36325;51.512;-0.382;2023-03-12T08:57:33;38.67;;;6.72;;
30036;SDS011;36325;51.512;-0.382;2023-03-12T09:00:01;43.92;;;7.28;;
30036;SDS011;36325;51.512;-0.382;2023-03-12T09:02:31;46.63;;;6.82;;
30036;SDS011;36325;51.512;-0.382;2023-03-12T09:04:59;41.38;;;5.88;;
30036;SDS011;36325;51.512;-0.382;2023-03-12T09:07:26;48.13;;;7.28;;
30036;SDS011;36325;51.512;-0.382;2023-03-12T09:09:54;50.35;;;6.63;;
30036;SDS011;36325;51.512;-0.382;2023-03-12T09:12:21;53.53;;;7.43;;
30036;SDS011;36325;51.512;-0.382;2023-03-12T09:14:50;44.20;;;7.22;;
30036;SDS011;36325;51.512;-0.382;2023-03-12T09:17:33;50.08;;;7.22;;
30036;SDS011;36325;51.512;-0.382;2023-03-12T09:20:00;41.53;;;6.22;;
30036;SDS011;36325;51.512;-0.382;2023-03-12T09:22:28;43.15;;;8.05;;
30036;SDS011;36325;51.512;-0.382;2023-03-12T09:24:56;49.83;;;7.03;;
30036;SDS011;36325;51.512;-0.382;2023-03-12T09:27:24;38.75;;;7.13;;
30036;SDS011;36325;51.512;-0.382;2023-03-12T09:29:53;46.22;;;7.82;;
30036;SDS011;36325;51.512;-0.382;2023-03-12T09:32:28;34.08;;;5.18;;
30036;SDS011;36325;51.512;-0.382;2023-03-12T09:34:55;46.13;;;6.78;;
30036;SDS011;36325;51.512;-0.382;2023-03-12T09:37:22;28.70;;;5.18;;
30036;SDS011;36325;51.512;-0.382;2023-03-12T09:39:50;50.35;;;6.07;;
30036;SDS011;36325;51.512;-0.382;2023-03-12T09:42:40;38.72;;;6.07;;
30036;SDS011;36325;51.512;-0.382;2023-03-12T09:45:22;32.97;;;6.43;;
30036;SDS011;36325;51.512;-0.382;2023-03-12T09:47:52;45.33;;;6.88;;
30036;SDS011;36325;51.512;-0.382;2023-03-12T09:50:30;34.92;;;5.65;;
30036;SDS011;36325;51.512;-0.382;2023-03-12T09:53:05;34.85;;;7.03;;
30036;SDS011;36325;51.512;-0.382;2023-03-12T09:55:36;43.53;;;6.28;;
30036;SDS011;36325;51.512;-0.382;2023-03-12T09:58:27;35.25;;;4.85;;
30036;SDS011;36325;51.512;-0.382;2023-03-12T10:00:59;28.95;;;6.20;;
30036;SDS011;36325;51.512;-0.382;2023-03-12T10:14:19;39.67;;;5.80;;
30036;SDS011;36325;51.512;-0.382;2023-03-12T10:19:52;33.78;;;6.45;;
30036;SDS011;36325;51.512;-0.382;2023-03-12T10:22:53;36.50;;;5.63;;
30036;SDS011;36325;51.512;-0.382;2023-03-12T10:25:27;39.65;;;5.75;;
30036;SDS011;36325;51.512;-0.382;2023-03-12T10:28:26;53.03;;;7.47;;
30036;SDS011;36325;51.512;-0.382;2023-03-12T10:31:00;40.30;;;6.53;;
30036;SDS011;36325;51.512;-0.382;2023-03-12T10:33:54;53.33;;;7.18;;
30036;SDS011;36325;51.512;-0.382;2023-03-12T10:39:02;49.83;;;6.93;;
30036;SDS011;36325;51.512;-0.382;2023-03-12T10:41:30;34.63;;;6.55;;
30036;SDS011;36325;51.512;-0.382;2023-03-12T10:44:05;37.10;;;6.47;;
30036;SDS011;36325;51.512;-0.382;2023-03-12T10:49:50;41.90;;;6.10;;
30036;SDS011;36325;51.512;-0.382;2023-03-12T10:52:01;24.10;;;4.28;;
30036;SDS011;36325;51.512;-0.382;2023-03-12T10:57:06;41.90;;;5.97;;
30036;SDS011;36325;51.512;-0.382;2023-03-12T10:59:35;32.25;;;7.50;;
30036;SDS011;36325;51.512;-0.382;2023-03-12T11:02:27;43.08;;;7.05;;
30036;SDS011;36325;51.512;-0.382;2023-03-12T11:05:17;48.05;;;6.80;;
30036;SDS011;36325;51.512;-0.382;2023-03-12T11:07:47;38.65;;;7.82;;
30036;SDS011;36325;51.512;-0.382;2023-03-12T11:10:16;28.48;;;4.15;;
30036;SDS011;36325;51.512;-0.382;2023-03-12T11:13:00;35.45;;;5.30;;
30036;SDS011;36325;51.512;-0.382;2023-03-12T11:15:35;41.45;;;5.88;;
30036;SDS011;36325;51.512;-0.382;2023-03-12T11:18:18;34.60;;;7.07;;
30036;SDS011;36325;51.512;-0.382;2023-03-12T11:20:48;39.00;;;6.88;;
30036;SDS011;36325;51.512;-0.382;2023-03-12T11:23:28;41.80;;;5.43;;
30036;SDS011;36325;51.512;-0.382;2023-03-12T11:26:00;36.58;;;5.78;;
30036;SDS011;36325;51.512;-0.382;2023-03-12T11:28:38;37.08;;;6.35;;
30036;SDS011;36325;51.512;-0.382;2023-03-12T11:31:21;37.97;;;5.88;;
30036;SDS011;36325;51.512;-0.382;2023-03-12T11:34:15;30.10;;;5.93;;
30036;SDS011;36325;51.512;-0.382;2023-03-12T11:36:53;32.70;;;5.85;;
30036;SDS011;36325;51.512;-0.382;2023-03-12T11:47:35;32.33;;;6.13;;
30036;SDS011;36325;51.512;-0.382;2023-03-12T11:53:16;34.63;;;4.90;;
30036;SDS011;36325;51.512;-0.382;2023-03-12T11:58:41;36.63;;;6.30;;
30036;SDS011;36325;51.512;-0.382;2023-03-12T12:01:23;34.83;;;4.95;;
30036;SDS011;36325;51.512;-0.382;2023-03-12T12:09:56;48.60;;;6.93;;
30036;SDS011;36325;51.512;-0.382;2023-03-12T12:21:25;35.20;;;7.22;;
30036;SDS011;36325;51.512;-0.382;2023-03-12T12:24:06;30.23;;;5.95;;
30036;SDS011;36325;51.512;-0.382;2023-03-12T12:27:03;43.78;;;6.70;;
30036;SDS011;36325;51.512;-0.382;2023-03-12T12:32:15;35.08;;;6.75;;
30036;SDS011;36325;51.512;-0.382;2023-03-12T12:34:52;24.48;;;5.95;;
30036;SDS011;36325;51.512;-0.382;2023-03-12T12:45:42;26.55;;;5.50;;
30036;SDS011;36325;51.512;-0.382;2023-03-12T12:50:53;40.05;;;7.22;;
30036;SDS011;36325;51.512;-0.382;2023-03-12T12:59:38;31.77;;;5.05;;
30036;SDS011;36325;51.512;-0.382;2023-03-12T13:02:18;31.40;;;4.63;;
30036;SDS011;36325;51.512;-0.382;2023-03-12T13:04:48;32.42;;;4.78;;
30036;SDS011;36325;51.512;-0.382;2023-03-12T13:09:50;28.27;;;4.10;;
30036;SDS011;36325;51.512;-0.382;2023-03-12T13:12:30;33.10;;;4.88;;
30036;SDS011;36325;51.512;-0.382;2023-03-12T13:18:04;24.58;;;4.63;;
30036;SDS011;36325;51.512;-0.382;2023-03-12T13:26:05;24.73;;;4.38;;
30036;SDS011;36325;51.512;-0.382;2023-03-12T13:31:35;27.92;;;4.57;;
30036;SDS011;36325;51.512;-0.382;2023-03-12T13:34:28;27.10;;;4.70;;
30036;SDS011;36325;51.512;-0.382;2023-03-12T13:37:19;19.50;;;4.07;;
30036;SDS011;36325;51.512;-0.382;2023-03-12T13:39:57;23.60;;;3.92;;
30036;SDS011;36325;51.512;-0.382;2023-03-12T13:42:35;31.13;;;5.25;;
30036;SDS011;36325;51.512;-0.382;2023-03-12T13:45:23;25.13;;;5.18;;
30036;SDS011;36325;51.512;-0.382;2023-03-12T13:47:58;29.13;;;5.40;;
30036;SDS011;36325;51.512;-0.382;2023-03-12T13:50:30;28.08;;;5.63;;
30036;SDS011;36325;51.512;-0.382;2023-03-12T13:53:13;32.95;;;4.60;;
30036;SDS011;36325;51.512;-0.382;2023-03-12T13:55:47;30.10;;;5.40;;
30036;SDS011;36325;51.512;-0.382;2023-03-12T13:58:26;19.40;;;4.22;;
30036;SDS011;36325;51.512;-0.382;2023-03-12T14:00:55;22.45;;;3.75;;
30036;SDS011;36325;51.512;-0.382;2023-03-12T14:03:35;23.73;;;3.72;;
30036;SDS011;36325;51.512;-0.382;2023-03-12T14:06:11;23.88;;;4.07;;
30036;SDS011;36325;51.512;-0.382;2023-03-12T14:11:28;18.58;;;3.42;;
30036;SDS011;36325;51.512;-0.382;2023-03-12T14:17:21;17.38;;;3.30;;
30036;SDS011;36325;51.512;-0.382;2023-03-12T14:20:13;30.17;;;6.53;;
30036;SDS011;36325;51.512;-0.382;2023-03-12T14:22:50;16.45;;;2.88;;
30036;SDS011;36325;51.512;-0.382;2023-03-12T14:25:34;16.33;;;3.70;;
30036;SDS011;36325;51.512;-0.382;2023-03-12T14:28:18;17.08;;;3.28;;
30036;SDS011;36325;51.512;-0.382;2023-03-12T14:31:00;18.52;;;3.20;;
30036;SDS011;36325;51.512;-0.382;2023-03-12T14:33:57;11.35;;;2.45;;
30036;SDS011;36325;51.512;-0.382;2023-03-12T14:36:26;13.95;;;1.92;;
30036;SDS011;36325;51.512;-0.382;2023-03-12T14:39:09;11.23;;;2.13;;
30036;SDS011;36325;51.512;-0.382;2023-03-12T14:41:59;15.98;;;3.45;;
30036;SDS011;36325;51.512;-0.382;2023-03-12T14:44:34;20.67;;;3.28;;
30036;SDS011;36325;51.512;-0.382;2023-03-12T14:47:04;13.68;;;2.83;;
30036;SDS011;36325;51.512;-0.382;2023-03-12T14:49:39;22.90;;;2.30;;
30036;SDS011;36325;51.512;-0.382;2023-03-12T14:52:13;11.52;;;2.10;;
30036;SDS011;36325;51.512;-0.382;2023-03-12T14:54:54;14.95;;;2.75;;
30036;SDS011;36325;51.512;-0.382;2023-03-12T14:57:26;17.08;;;2.40;;
30036;SDS011;36325;51.512;-0.382;2023-03-12T14:59:55;20.25;;;4.25;;
30036;SDS011;36325;51.512;-0.382;2023-03-12T15:02:24;12.45;;;2.83;;
30036;SDS011;36325;51.512;-0.382;2023-03-12T15:04:58;20.13;;;3.75;;
30036;SDS011;36325;51.512;-0.382;2023-03-12T15:07:32;12.68;;;3.47;;
30036;SDS011;36325;51.512;-0.382;2023-03-12T15:10:05;15.90;;;3.50;;
30036;SDS011;36325;51.512;-0.382;2023-03-12T15:12:42;28.25;;;3.95;;
30036;SDS011;36325;51.512;-0.382;2023-03-12T15:17:54;24.25;;;3.97;;
30036;SDS011;36325;51.512;-0.382;2023-03-12T15:20:21;21.55;;;3.85;;
30036;SDS011;36325;51.512;-0.382;2023-03-12T15:22:52;13.48;;;2.88;;
30036;SDS011;36325;51.512;-0.382;2023-03-12T15:28:02;17.95;;;2.80;;
30036;SDS011;36325;51.512;-0.382;2023-03-12T15:30:36;24.92;;;4.53;;
30036;SDS011;36325;51.512;-0.382;2023-03-12T15:33:20;17.88;;;2.38;;
30036;SDS011;36325;51.512;-0.382;2023-03-12T15:38:27;12.45;;;1.75;;
30036;SDS011;36325;51.512;-0.382;2023-03-12T15:40:57;12.25;;;2.75;;
30036;SDS011;36325;51.512;-0.382;2023-03-12T15:43:28;17.58;;;2.65;;
30036;SDS011;36325;51.512;-0.382;2023-03-12T15:45:57;17.70;;;2.67;;
30036;SDS011;36325;51.512;-0.382;2023-03-12T15:51:10;16.83;;;2.95;;
30036;SDS011;36325;51.512;-0.382;2023-03-12T15:53:40;8.80;;;1.92;;
30036;SDS011;36325;51.512;-0.382;2023-03-12T15:58:38;18.48;;;4.78;;
30036;SDS011;36325;51.512;-0.382;2023-03-12T16:01:14;7.90;;;2.60;;
30036;SDS011;36325;51.512;-0.382;2023-03-12T16:03:46;14.05;;;1.90;;
30036;SDS011;36325;51.512;-0.382;2023-03-12T16:06:15;10.93;;;2.35;;
30036;SDS011;36325;51.512;-0.382;2023-03-12T16:11:15;10.77;;;2.40;;
30036;SDS011;36325;51.512;-0.382;2023-03-12T16:13:45;12.07;;;1.55;;
30036;SDS011;36325;51.512;-0.382;2023-03-12T16:16:14;17.88;;;4.15;;
30036;SDS011;36325;51.512;-0.382;2023-03-12T16:18:42;15.00;;;2.00;;
30036;SDS011;36325;51.512;-0.382;2023-03-12T16:21:11;12.93;;;2.25;;
30036;SDS011;36325;51.512;-0.382;2023-03-12T16:23:38;9.43;;;2.55;;
30036;SDS011;36325;51.512;-0.382;2023-03-12T16:26:06;13.15;;;2.33;;
30036;SDS011;36325;51.512;-0.382;2023-03-12T16:28:34;14.82;;;1.67;;
30036;SDS011;36325;51.512;-0.382;2023-03-12T16:31:08;5.63;;;1.60;;
30036;SDS011;36325;51.512;-0.382;2023-03-12T16:33:39;7.45;;;2.08;;
30036;SDS011;36325;51.512;-0.382;2023-03-12T16:36:15;10.32;;;1.88;;
30036;SDS011;36325;51.512;-0.382;2023-03-12T16:38:45;6.30;;;1.73;;
30036;SDS011;36325;51.512;-0.382;2023-03-12T16:41:14;3.50;;;0.95;;